createdAt,value
2023-01-10T00:00:49.584Z,94930.16
2023-01-10T00:03:18.018Z,94951.38
2023-01-10T00:05:46.494Z,94945.53
2023-01-10T00:08:18.063Z,94909.72
2023-01-10T00:10:46.413Z,94948.34
2023-01-10T00:13:24.777Z,94956.72
2023-01-10T00:15:56.714Z,94951.69
2023-01-10T00:18:25.235Z,94955.72
2023-01-10T00:20:53.666Z,94962.84
2023-01-10T00:23:24.666Z,94931.66
2023-01-10T00:25:52.975Z,94972.72
2023-01-10T00:28:21.836Z,94975.16
2023-01-10T00:31:00.155Z,94973.22
2023-01-10T00:33:32.046Z,94967.06
2023-01-10T00:36:00.813Z,94983.03
2023-01-10T00:38:30.585Z,94971.19
2023-01-10T00:40:59.168Z,94892.94
2023-01-10T00:43:45.032Z,94983.69
2023-01-10T00:46:14.019Z,94983.88
2023-01-10T00:48:43.865Z,94993.59
2023-01-10T00:51:12.337Z,94992.34
2023-01-10T00:53:40.731Z,94990.53
2023-01-10T00:56:09.819Z,95005.53
2023-01-10T00:58:38.101Z,95009.19
2023-01-10T01:01:06.852Z,95011.56
2023-01-10T01:03:35.896Z,95046.75
2023-01-10T01:06:08.147Z,95022.72
2023-01-10T01:08:36.557Z,95032.56
2023-01-10T01:11:04.842Z,95040.81
2023-01-10T01:13:33.262Z,95046.22
2023-01-10T01:16:02.153Z,95041.22
2023-01-10T01:18:30.773Z,95049.78
2023-01-10T01:21:02.505Z,95053.75
2023-01-10T01:23:32.342Z,95058.34
2023-01-10T01:26:00.753Z,95063.59
2023-01-10T01:28:29.285Z,95024.25
2023-01-10T01:30:57.689Z,95073.22
2023-01-10T01:33:26.046Z,95060.44
2023-01-10T01:35:54.425Z,95074.56
2023-01-10T01:38:22.800Z,95075.88
2023-01-10T01:40:52.634Z,95028.38
2023-01-10T01:43:25.339Z,95082.25
2023-01-10T01:45:54.717Z,95100.41
2023-01-10T01:48:30.169Z,95094.50
2023-01-10T01:51:05.954Z,95098.66
2023-01-10T01:53:38.663Z,95098.22
2023-01-10T01:56:13.100Z,95074.94
2023-01-10T01:58:47.868Z,95100.06
2023-01-10T02:01:17.174Z,95098.28
2023-01-10T02:03:50.347Z,95078.25
2023-01-10T02:06:20.728Z,95122.72
2023-01-10T02:08:58.125Z,95131.38
2023-01-10T02:11:28.301Z,95140.66
2023-01-10T02:13:57.400Z,95134.09
2023-01-10T02:16:25.733Z,95142.19
2023-01-10T02:18:54.123Z,95155.09
2023-01-10T02:21:44.023Z,95154.22
2023-01-10T02:24:37.574Z,95168.16
2023-01-10T02:27:22.145Z,95160.28
2023-01-10T02:30:39.183Z,95169.31
2023-01-10T02:33:18.551Z,95165.59
2023-01-10T02:36:03.571Z,95125.97
2023-01-10T02:38:42.900Z,95177.72
2023-01-10T02:41:19.837Z,95137.84
2023-01-10T02:43:52.984Z,95166.56
2023-01-10T02:46:27.743Z,95178.03
2023-01-10T02:48:57.751Z,95185.97
2023-01-10T02:51:28.575Z,95182.06
2023-01-10T02:54:01.008Z,95181.25
2023-01-10T02:56:52.873Z,95196.50
2023-01-10T03:00:04.399Z,95199.56
2023-01-10T03:02:46.275Z,95193.69
2023-01-10T03:05:26.439Z,95194.72
2023-01-10T03:08:02.643Z,95197.88
2023-01-10T03:10:39.202Z,95221.78
2023-01-10T03:13:12.350Z,95162.59
2023-01-10T03:15:43.194Z,95216.91
2023-01-10T03:18:16.651Z,95222.47
2023-01-10T03:20:49.539Z,95219.50
2023-01-10T03:23:20.213Z,95219.28
2023-01-10T03:25:49.472Z,95236.25
2023-01-10T03:28:20.792Z,95241.03
2023-01-10T03:30:53.716Z,95251.63
2023-01-10T03:33:29.323Z,95249.69
2023-01-10T03:36:10.147Z,95206.00
2023-01-10T03:38:46.574Z,95266.47
2023-01-10T03:41:19.831Z,95294.22
2023-01-10T03:44:10.811Z,95253.03
2023-01-10T03:46:45.577Z,95297.66
2023-01-10T03:49:16.640Z,95276.78
2023-01-10T03:51:46.887Z,95211.78
2023-01-10T03:54:17.740Z,95313.78
2023-01-10T03:56:47.686Z,95275.50
2023-01-10T03:59:16.136Z,95306.69
2023-01-10T04:01:44.754Z,95307.75
2023-01-10T04:04:13.222Z,95322.88
2023-01-10T04:06:42.068Z,95313.94
2023-01-10T04:09:12.334Z,95309.41
2023-01-10T04:11:41.610Z,95322.53
2023-01-10T04:14:09.881Z,95312.72
2023-01-10T04:16:38.448Z,95323.91
2023-01-10T04:19:07.140Z,95308.41
2023-01-10T04:21:35.461Z,95332.16
2023-01-10T04:24:03.787Z,95319.81
2023-01-10T04:26:33.543Z,95342.66
2023-01-10T04:29:01.913Z,95346.47
2023-01-10T04:31:30.247Z,95351.06
2023-01-10T04:33:58.671Z,95352.34
2023-01-10T04:36:27.658Z,95340.56
2023-01-10T04:38:56.173Z,95354.19
2023-01-10T04:41:24.529Z,95359.00
2023-01-10T04:43:54.298Z,95361.94
2023-01-10T04:46:23.077Z,95370.63
2023-01-10T04:48:51.420Z,95377.09
2023-01-10T04:51:19.766Z,95332.88
2023-01-10T04:53:48.155Z,95369.41
2023-01-10T04:56:19.500Z,95384.06
2023-01-10T04:58:49.100Z,95341.88
2023-01-10T05:01:21.022Z,95370.22
2023-01-10T05:03:50.219Z,95382.22
2023-01-10T05:06:19.208Z,95416.59
2023-01-10T05:08:48.127Z,95412.19
2023-01-10T05:11:16.657Z,95417.56
2023-01-10T05:13:47.143Z,95422.28
2023-01-10T05:16:16.383Z,95420.75
2023-01-10T05:18:46.545Z,95432.00
2023-01-10T05:21:15.683Z,95381.00
2023-01-10T05:23:44.343Z,95332.09
2023-01-10T05:26:14.672Z,95436.19
2023-01-10T05:28:43.695Z,95437.50
2023-01-10T05:31:14.458Z,95446.84
2023-01-10T05:33:47.483Z,95457.84
2023-01-10T05:36:15.953Z,95443.38
2023-01-10T05:38:44.507Z,95412.59
2023-01-10T05:41:12.968Z,95477.88
2023-01-10T05:43:41.627Z,95474.03
2023-01-10T05:46:10.347Z,95486.13
2023-01-10T05:48:38.962Z,95482.25
2023-01-10T05:51:09.340Z,95486.44
2023-01-10T05:53:37.675Z,95487.50
2023-01-10T05:56:07.853Z,95493.53
2023-01-10T05:58:36.339Z,95490.50
2023-01-10T06:01:04.915Z,95507.09
2023-01-10T06:03:33.244Z,95499.75
2023-01-10T06:06:03.376Z,95442.25
2023-01-10T06:08:33.419Z,95515.28
2023-01-10T06:11:01.769Z,95533.09
2023-01-10T06:13:30.067Z,95526.56
2023-01-10T06:15:58.480Z,95538.69
2023-01-10T06:18:26.959Z,95513.44
2023-01-10T06:20:55.213Z,95552.22
2023-01-10T06:23:23.571Z,95549.09
2023-01-10T06:25:53.381Z,95552.94
2023-01-10T06:28:21.662Z,95570.88
2023-01-10T06:30:50.002Z,95574.97
2023-01-10T06:33:18.391Z,95574.81
2023-01-10T06:35:48.296Z,95574.97
2023-01-10T06:38:16.903Z,95591.41
2023-01-10T06:40:45.282Z,95606.66
2023-01-10T06:43:15.014Z,95619.41
2023-01-10T06:45:43.690Z,95620.53
2023-01-10T06:48:12.023Z,95619.84
2023-01-10T06:50:40.351Z,95638.72
2023-01-10T06:53:08.709Z,95642.19
2023-01-10T06:55:37.042Z,95640.72
2023-01-10T06:58:05.939Z,95634.00
2023-01-10T07:00:35.610Z,95637.25
2023-01-10T07:03:03.985Z,95650.09
2023-01-10T07:05:32.441Z,95654.59
2023-01-10T07:08:01.592Z,95650.44
2023-01-10T07:10:30.152Z,95654.97
2023-01-10T07:12:59.549Z,95644.13
2023-01-10T07:15:28.669Z,95656.91
2023-01-10T07:17:59.669Z,95641.25
2023-01-10T07:20:28.780Z,95672.69
2023-01-10T07:22:58.489Z,95683.44
2023-01-10T07:25:28.110Z,95684.50
2023-01-10T07:27:56.589Z,95686.03
2023-01-10T07:30:26.186Z,95698.44
2023-01-10T07:32:56.036Z,95699.72
2023-01-10T07:35:26.435Z,95705.63
2023-01-10T07:37:54.775Z,95716.03
2023-01-10T07:40:23.029Z,95722.91
2023-01-10T07:42:51.558Z,95744.31
2023-01-10T07:45:19.988Z,95706.53
2023-01-10T07:47:48.245Z,95725.91
2023-01-10T07:50:18.095Z,95736.88
2023-01-10T07:52:47.873Z,95735.50
2023-01-10T07:55:16.838Z,95696.50
2023-01-10T07:57:45.163Z,95745.13
2023-01-10T08:00:14.674Z,95750.66
2023-01-10T08:02:43.072Z,95757.75
2023-01-10T08:05:11.670Z,95762.38
2023-01-10T08:07:40.165Z,95766.06
2023-01-10T08:10:11.329Z,95765.88
2023-01-10T08:12:39.674Z,95762.84
2023-01-10T08:15:08.924Z,95767.34
2023-01-10T08:17:37.698Z,95766.00
2023-01-10T08:20:06.683Z,95749.38
2023-01-10T08:22:34.976Z,95724.75
2023-01-10T08:25:03.398Z,95765.59
2023-01-10T08:27:33.131Z,95764.78
2023-01-10T08:30:01.500Z,95763.75
2023-01-10T08:32:29.850Z,95756.22
2023-01-10T08:34:58.232Z,95776.19
2023-01-10T08:37:26.538Z,95786.94
2023-01-10T08:39:55.245Z,95798.59
2023-01-10T08:42:23.606Z,95800.03
2023-01-10T08:44:54.503Z,95799.84
2023-01-10T08:47:22.990Z,95805.19
2023-01-10T08:49:51.365Z,95806.38
2023-01-10T08:52:19.674Z,95803.84
2023-01-10T08:54:47.975Z,95800.38
2023-01-10T08:57:16.277Z,95814.34
2023-01-10T08:59:44.678Z,95784.59
2023-01-10T09:02:15.314Z,95822.78
2023-01-10T09:04:43.899Z,95847.38
2023-01-10T09:07:12.288Z,95856.97
2023-01-10T09:09:41.049Z,95852.34
2023-01-10T09:12:23.256Z,95776.38
2023-01-10T09:14:51.827Z,95852.06
2023-01-10T09:17:21.643Z,95858.47
2023-01-10T09:19:49.943Z,95856.50
2023-01-10T09:22:18.361Z,95852.78
2023-01-10T09:24:46.697Z,95833.69
2023-01-10T09:27:15.171Z,95841.59
2023-01-10T09:29:43.496Z,95836.63
2023-01-10T09:32:11.846Z,95845.47
2023-01-10T09:34:41.680Z,95840.69
2023-01-10T09:37:10.136Z,95853.94
2023-01-10T09:39:38.385Z,95853.84
2023-01-10T09:42:28.405Z,95859.44
2023-01-10T09:45:05.600Z,95840.41
2023-01-10T09:47:43.790Z,95823.50
2023-01-10T09:50:20.549Z,95832.88
2023-01-10T09:52:53.227Z,95840.69
2023-01-10T09:55:29.157Z,95846.03
2023-01-10T09:58:01.423Z,95834.41
2023-01-10T10:00:40.180Z,95830.22
2023-01-10T10:03:20.511Z,95846.03
2023-01-10T10:05:54.101Z,95863.88
2023-01-10T10:08:24.635Z,95845.09
2023-01-10T10:11:02.082Z,95866.22
2023-01-10T10:13:42.731Z,95864.81
2023-01-10T10:16:20.896Z,95863.69
2023-01-10T10:19:03.331Z,95820.34
2023-01-10T10:21:43.960Z,95878.16
2023-01-10T10:24:27.130Z,95878.63
2023-01-10T10:27:00.362Z,95883.59
2023-01-10T10:29:56.960Z,95887.25
2023-01-10T10:32:38.015Z,95879.69
2023-01-10T10:35:13.973Z,95887.91
2023-01-10T10:37:47.327Z,95887.56
2023-01-10T10:40:21.317Z,95885.25
2023-01-10T10:42:52.060Z,95886.19
2023-01-10T10:45:25.558Z,95847.88
2023-01-10T10:48:04.825Z,95882.69
2023-01-10T10:50:35.150Z,95883.50
2023-01-10T10:53:06.243Z,95881.31
2023-01-10T10:55:38.291Z,95885.50
2023-01-10T10:58:08.602Z,95888.28
2023-01-10T11:00:37.000Z,95859.25
2023-01-10T11:03:18.670Z,95889.22
2023-01-10T11:05:49.099Z,95900.84
2023-01-10T11:08:21.554Z,95869.13
2023-01-10T11:10:53.708Z,95889.66
2023-01-10T11:13:31.060Z,95838.94
2023-01-10T11:16:00.084Z,95880.75
2023-01-10T11:18:30.773Z,95890.69
2023-01-10T11:21:01.925Z,95886.88
2023-01-10T11:23:43.229Z,95880.84
2023-01-10T11:26:24.452Z,95886.78
2023-01-10T11:28:55.206Z,95893.50
2023-01-10T11:31:30.346Z,95879.91
2023-01-10T11:33:59.404Z,95836.50
2023-01-10T11:36:27.865Z,95818.97
2023-01-10T11:39:03.746Z,95902.56
2023-01-10T11:41:34.538Z,95904.56
2023-01-10T11:44:22.563Z,95898.72
2023-01-10T11:46:53.453Z,95907.94
2023-01-10T11:49:28.535Z,95910.03
2023-01-10T11:52:04.502Z,95911.38
2023-01-10T11:54:35.010Z,95883.28
2023-01-10T11:57:08.796Z,95930.28
2023-01-10T11:59:39.243Z,95920.44
2023-01-10T12:02:24.715Z,95914.72
2023-01-10T12:04:55.529Z,95922.88
2023-01-10T12:07:24.283Z,95910.91
2023-01-10T12:09:59.491Z,95919.28
2023-01-10T12:12:29.764Z,95918.69
2023-01-10T12:15:00.083Z,95900.59
2023-01-10T12:17:31.674Z,95936.53
2023-01-10T12:20:02.412Z,95896.16
2023-01-10T12:22:33.715Z,95935.75
2023-01-10T12:25:08.019Z,95935.16
2023-01-10T12:27:36.285Z,95918.22
2023-01-10T12:30:12.957Z,95929.59
2023-01-10T12:32:45.843Z,95931.81
2023-01-10T12:35:18.802Z,95919.75
2023-01-10T12:37:51.873Z,95936.22
2023-01-10T12:40:32.343Z,95933.19
2023-01-10T12:43:21.686Z,95936.44
2023-01-10T12:45:54.614Z,95939.66
2023-01-10T12:48:28.661Z,95933.31
2023-01-10T12:51:02.386Z,95919.16
2023-01-10T12:53:33.288Z,95938.66
2023-01-10T12:56:08.294Z,95928.22
2023-01-10T12:58:44.211Z,95921.84
2023-01-10T13:01:16.275Z,95924.47
2023-01-10T13:03:46.299Z,95884.75
2023-01-10T13:06:22.942Z,95931.44
2023-01-10T13:08:52.482Z,95927.03
2023-01-10T13:11:27.499Z,95914.59
2023-01-10T13:14:01.147Z,95912.38
2023-01-10T13:16:32.387Z,95928.28
2023-01-10T13:19:06.659Z,95924.69
2023-01-10T13:21:35.870Z,95873.81
2023-01-10T13:24:06.210Z,95923.66
2023-01-10T13:27:02.086Z,95930.88
2023-01-10T13:29:32.876Z,95921.44
2023-01-10T13:32:03.533Z,95925.28
2023-01-10T13:34:35.562Z,95926.22
2023-01-10T13:37:12.039Z,95918.34
2023-01-10T13:39:45.952Z,95895.34
2023-01-10T13:42:48.137Z,95920.53
2023-01-10T13:45:20.685Z,95883.50
2023-01-10T13:48:26.095Z,95910.47
2023-01-10T13:51:07.113Z,95917.66
2023-01-10T13:53:53.340Z,95925.41
2023-01-10T13:56:39.372Z,95883.28
2023-01-10T13:59:31.763Z,95918.34
2023-01-10T14:02:20.266Z,95912.19
2023-01-10T14:04:52.200Z,95913.78
2023-01-10T14:07:26.798Z,95906.63
2023-01-10T14:10:04.553Z,95906.72
2023-01-10T14:12:36.264Z,95911.91
2023-01-10T14:15:23.195Z,95908.22
2023-01-10T14:18:02.088Z,95911.00
2023-01-10T14:20:32.718Z,95923.41
2023-01-10T14:23:05.531Z,95912.50
2023-01-10T14:25:36.452Z,95890.06
2023-01-10T14:28:07.173Z,95923.41
2023-01-10T14:30:40.996Z,95919.00
2023-01-10T14:33:17.363Z,95918.91
2023-01-10T14:35:47.937Z,95911.91
2023-01-10T14:38:20.324Z,95902.19
2023-01-10T14:40:51.525Z,95901.25
2023-01-10T14:43:25.225Z,95900.41
2023-01-10T14:45:59.425Z,95902.84
2023-01-10T14:48:31.061Z,95904.59
2023-01-10T14:51:10.689Z,95891.25
2023-01-10T14:53:39.470Z,95910.56
2023-01-10T14:56:22.729Z,95900.75
2023-01-10T14:58:51.155Z,95902.09
2023-01-10T15:01:24.841Z,95895.28
2023-01-10T15:03:53.491Z,95898.84
2023-01-10T15:06:24.064Z,95896.03
2023-01-10T15:08:59.146Z,95864.09
2023-01-10T15:11:29.125Z,95898.13
2023-01-10T15:14:03.620Z,95894.69
2023-01-10T15:16:35.226Z,95906.69
2023-01-10T15:19:04.382Z,95879.97
2023-01-10T15:21:32.916Z,95885.50
2023-01-10T15:24:01.232Z,95882.06
2023-01-10T15:26:33.595Z,95844.09
2023-01-10T15:29:12.596Z,95879.28
2023-01-10T15:31:44.596Z,95853.09
2023-01-10T15:34:18.509Z,95875.53
2023-01-10T15:36:51.066Z,95880.53
2023-01-10T15:39:22.881Z,95877.44
2023-01-10T15:41:57.030Z,95891.69
2023-01-10T15:44:37.340Z,95881.94
2023-01-10T15:47:08.270Z,95881.03
2023-01-10T15:49:36.716Z,95873.44
2023-01-10T15:52:05.062Z,95872.63
2023-01-10T15:54:34.189Z,95879.72
2023-01-10T15:57:08.020Z,95835.47
2023-01-10T15:59:38.345Z,95866.88
2023-01-10T16:02:24.802Z,95842.03
2023-01-10T16:04:57.236Z,95860.06
2023-01-10T16:07:28.047Z,95838.47
2023-01-10T16:09:59.816Z,95850.16
2023-01-10T16:12:51.576Z,95859.75
2023-01-10T16:15:22.272Z,95830.56
2023-01-10T16:17:52.777Z,95847.97
2023-01-10T16:20:23.027Z,95832.69
2023-01-10T16:22:51.807Z,95817.59
2023-01-10T16:25:25.040Z,95830.38
2023-01-10T16:27:56.321Z,95767.78
2023-01-10T16:30:26.842Z,95801.56
2023-01-10T16:32:58.575Z,95802.38
2023-01-10T16:35:27.144Z,95795.63
2023-01-10T16:38:00.338Z,95747.81
2023-01-10T16:40:30.561Z,95789.09
2023-01-10T16:43:16.453Z,95744.31
2023-01-10T16:45:45.224Z,95770.19
2023-01-10T16:48:15.754Z,95799.75
2023-01-10T16:50:44.356Z,95737.19
2023-01-10T16:53:17.033Z,95755.88
2023-01-10T16:55:50.638Z,95780.88
2023-01-10T16:58:19.257Z,95760.72
2023-01-10T17:00:52.204Z,95749.19
2023-01-10T17:03:36.484Z,95767.25
2023-01-10T17:06:05.552Z,95750.81
2023-01-10T17:08:33.915Z,95726.63
2023-01-10T17:11:06.761Z,95765.59
2023-01-10T17:13:40.326Z,95750.63
2023-01-10T17:16:09.210Z,95749.50
2023-01-10T17:18:39.554Z,95754.69
2023-01-10T17:21:08.303Z,95738.38
2023-01-10T17:23:36.872Z,95739.09
2023-01-10T17:26:06.530Z,95747.78
2023-01-10T17:28:35.697Z,95718.19
2023-01-10T17:31:04.475Z,95761.16
2023-01-10T17:33:34.292Z,95773.00
2023-01-10T17:36:05.492Z,95767.75
2023-01-10T17:38:33.798Z,95759.88
2023-01-10T17:41:03.389Z,95756.47
2023-01-10T17:43:32.651Z,95751.97
2023-01-10T17:46:01.278Z,95761.41
2023-01-10T17:48:30.692Z,95749.78
2023-01-10T17:51:01.177Z,95750.84
2023-01-10T17:53:31.753Z,95749.63
2023-01-10T17:56:01.396Z,95748.63
2023-01-10T17:58:33.157Z,95748.03
2023-01-10T18:01:01.681Z,95704.13
2023-01-10T18:03:30.209Z,95737.09
2023-01-10T18:06:00.428Z,95751.63
2023-01-10T18:08:30.231Z,95726.88
2023-01-10T18:11:02.357Z,95738.56
2023-01-10T18:13:31.978Z,95730.13
2023-01-10T18:16:02.035Z,95725.81
2023-01-10T18:18:31.583Z,95742.28
2023-01-10T18:21:02.427Z,95730.75
2023-01-10T18:23:33.925Z,95721.56
2023-01-10T18:26:04.340Z,95667.31
2023-01-10T18:28:41.744Z,95715.69
2023-01-10T18:31:12.706Z,95730.56
2023-01-10T18:33:41.663Z,95700.00
2023-01-10T18:36:14.456Z,95693.56
2023-01-10T18:38:44.652Z,95699.13
2023-01-10T18:41:13.260Z,95700.22
2023-01-10T18:43:41.684Z,95673.53
2023-01-10T18:46:13.158Z,95694.91
2023-01-10T18:48:42.005Z,95710.50
2023-01-10T18:51:12.617Z,95693.13
2023-01-10T18:53:41.373Z,95655.97
2023-01-10T18:56:11.725Z,95661.59
2023-01-10T18:58:41.632Z,95673.16
2023-01-10T19:01:12.603Z,95667.91
2023-01-10T19:03:41.384Z,95515.84
2023-01-10T19:06:12.864Z,95661.84
2023-01-10T19:08:41.242Z,95664.00
2023-01-10T19:11:14.283Z,95634.41
2023-01-10T19:13:43.872Z,95641.03
2023-01-10T19:16:14.845Z,95669.94
2023-01-10T19:18:43.817Z,95655.38
2023-01-10T19:21:15.615Z,95638.72
2023-01-10T19:23:44.761Z,95649.59
2023-01-10T19:26:15.739Z,95650.63
2023-01-10T19:28:44.848Z,95625.34
2023-01-10T19:31:16.401Z,95578.69
2023-01-10T19:33:46.267Z,95640.38
2023-01-10T19:36:14.725Z,95629.69
2023-01-10T19:38:43.155Z,95624.63
2023-01-10T19:41:11.582Z,95637.56
2023-01-10T19:43:41.545Z,95599.53
2023-01-10T19:46:10.847Z,95583.09
2023-01-10T19:48:39.844Z,95568.09
2023-01-10T19:51:09.735Z,95604.72
2023-01-10T19:53:39.378Z,95570.06
2023-01-10T19:56:09.958Z,95596.09
2023-01-10T19:58:40.898Z,95586.06
2023-01-10T20:01:10.755Z,95534.06
2023-01-10T20:03:41.130Z,95586.84
2023-01-10T20:06:11.117Z,95591.13
2023-01-10T20:08:39.483Z,95555.81
2023-01-10T20:11:08.797Z,95584.06
2023-01-10T20:13:40.118Z,95578.59
2023-01-10T20:16:10.440Z,95550.78
2023-01-10T20:18:38.840Z,95533.00
2023-01-10T20:21:08.105Z,95553.69
2023-01-10T20:23:37.125Z,95528.94
2023-01-10T20:26:09.639Z,95545.59
2023-01-10T20:28:39.080Z,95551.97
2023-01-10T20:31:10.522Z,95540.59
2023-01-10T20:33:38.890Z,95558.13
2023-01-10T20:36:09.547Z,95561.19
2023-01-10T20:38:38.571Z,95591.03
2023-01-10T20:41:09.538Z,95602.84
2023-01-10T20:43:38.195Z,95609.34
2023-01-10T20:46:07.940Z,95580.56
2023-01-10T20:48:38.478Z,95624.31
2023-01-10T20:51:08.044Z,95593.16
2023-01-10T20:53:36.455Z,95597.44
2023-01-10T20:56:05.795Z,95601.00
2023-01-10T20:58:35.080Z,95604.34
2023-01-10T21:01:03.925Z,95606.91
2023-01-10T21:03:32.406Z,95578.75
2023-01-10T21:06:02.493Z,95602.38
2023-01-10T21:08:30.920Z,95594.34
2023-01-10T21:10:59.672Z,95599.22
2023-01-10T21:13:29.355Z,95586.09
2023-01-10T21:15:58.924Z,95586.94
2023-01-10T21:18:31.272Z,95576.44
2023-01-10T21:21:01.389Z,95579.81
2023-01-10T21:23:30.282Z,95571.47
2023-01-10T21:26:03.862Z,95578.41
2023-01-10T21:28:35.146Z,95576.56
2023-01-10T21:31:03.492Z,95574.34
2023-01-10T21:33:31.954Z,95497.53
2023-01-10T21:36:01.797Z,95561.97
2023-01-10T21:38:30.479Z,95560.72
2023-01-10T21:41:07.415Z,95570.22
2023-01-10T21:43:38.884Z,95556.78
2023-01-10T21:46:07.536Z,95569.34
2023-01-10T21:48:36.143Z,95546.03
2023-01-10T21:51:05.985Z,95559.75
2023-01-10T21:53:34.365Z,95563.00
2023-01-10T21:56:02.768Z,95575.63
2023-01-10T21:58:31.148Z,95536.31
2023-01-10T22:01:00.175Z,95580.16
2023-01-10T22:03:28.658Z,95557.69
2023-01-10T22:05:56.926Z,95550.91
2023-01-10T22:08:26.792Z,95552.66
2023-01-10T22:10:55.122Z,95528.28
2023-01-10T22:13:25.566Z,95469.38
2023-01-10T22:15:58.980Z,95483.75
2023-01-10T22:18:27.604Z,95428.44
2023-01-10T22:20:56.945Z,95456.94
2023-01-10T22:23:28.653Z,95440.50
2023-01-10T22:26:01.553Z,95394.66
2023-01-10T22:28:30.436Z,95428.88
2023-01-10T22:30:59.400Z,95403.41
2023-01-10T22:33:30.606Z,95384.00
2023-01-10T22:36:03.937Z,95383.72
2023-01-10T22:38:34.255Z,95399.16
2023-01-10T22:41:07.437Z,95398.75
2023-01-10T22:43:36.338Z,95458.88
2023-01-10T22:46:05.068Z,95456.88
2023-01-10T22:48:33.746Z,95484.78
2023-01-10T22:51:02.227Z,95503.53
2023-01-10T22:53:30.552Z,95475.31
2023-01-10T22:56:02.622Z,95488.84
2023-01-10T22:58:31.196Z,95468.66
2023-01-10T23:00:59.725Z,95439.63
2023-01-10T23:03:28.089Z,95469.38
2023-01-10T23:05:57.085Z,95463.75
2023-01-10T23:08:25.470Z,95457.09
2023-01-10T23:10:54.494Z,95434.03
2023-01-10T23:13:25.289Z,95474.97
2023-01-10T23:15:57.845Z,95467.03
2023-01-10T23:18:26.181Z,95430.13
2023-01-10T23:20:54.797Z,95479.47
2023-01-10T23:23:23.672Z,95478.88
2023-01-10T23:26:01.794Z,95370.72
2023-01-10T23:28:32.929Z,95451.31
2023-01-10T23:31:01.244Z,95496.00
2023-01-10T23:33:30.364Z,95497.84
2023-01-10T23:35:58.701Z,95512.25
2023-01-10T23:38:27.575Z,95484.66
2023-01-10T23:40:56.161Z,95453.81
2023-01-10T23:43:25.101Z,95411.78
2023-01-10T23:45:54.960Z,95473.50
2023-01-10T23:48:23.851Z,95469.56
2023-01-10T23:50:52.659Z,95444.63
2023-01-10T23:53:21.212Z,95463.28
2023-01-10T23:55:49.607Z,95447.50
2023-01-10T23:58:18.171Z,95448.94
